Time;durP1;ratioP1;P1;durP2;ratioP2;P2;SDS_P1;SDS_P2;PMS_P1;PMS_P2;Temp;Humidity;BMP_temperature;BMP_pressure;BME280_temperature;BME280_humidity;BME280_pressure;Samples;Min_cycle;Max_cycle;Signal;HPM_P1;HPM_P2
2023/06/23 00:00:52;;;;;;;10.70;8.15;;;25.60;99.90;;;;;;4884944;29;20071;-80
2023/06/23 00:03:20;;;;;;;13.85;8.10;;;25.50;99.90;;;;;;4866967;29;20475;-80
2023/06/23 00:05:47;;;;;;;12.35;8.98;;;25.50;99.90;;;;;;4855775;29;20056;-80
2023/06/23 00:08:15;;;;;;;11.57;8.00;;;25.50;99.90;;;;;;4869721;29;20050;-80
2023/06/23 00:10:45;;;;;;;8.93;7.05;;;25.50;99.90;;;;;;4848506;29;20048;-80
2023/06/23 00:13:13;;;;;;;10.35;7.97;;;25.50;99.90;;;;;;4866215;29;20745;-80
2023/06/23 00:15:40;;;;;;;10.52;7.60;;;25.50;99.90;;;;;;4863382;29;20056;-81
2023/06/23 00:18:07;;;;;;;8.30;6.63;;;25.50;99.90;;;;;;4850926;29;20150;-81
2023/06/23 00:20:34;;;;;;;12.50;7.90;;;25.40;99.90;;;;;;4853741;29;20055;-80
2023/06/23 00:23:02;;;;;;;9.73;7.70;;;25.40;99.90;;;;;;4865442;29;20054;-80
2023/06/23 00:25:29;;;;;;;9.25;7.15;;;25.40;99.90;;;;;;4838182;29;20040;-81
2023/06/23 00:27:59;;;;;;;9.93;7.15;;;25.40;99.90;;;;;;4861107;29;20044;-80
2023/06/23 00:30:27;;;;;;;9.85;7.68;;;25.40;99.90;;;;;;4865450;29;20781;-81
2023/06/23 00:32:54;;;;;;;13.55;7.93;;;25.40;99.90;;;;;;4867990;29;22189;-81
2023/06/23 00:35:22;;;;;;;7.65;6.38;;;25.40;99.90;;;;;;4879308;29;20048;-81
2023/06/23 00:37:50;;;;;;;9.15;6.70;;;25.40;99.90;;;;;;4868187;29;20408;-81
2023/06/23 00:40:22;;;;;;;11.20;7.00;;;25.40;99.90;;;;;;4858807;29;20195;-81
2023/06/23 00:42:53;;;;;;;9.13;6.72;;;25.40;99.90;;;;;;4852750;29;20123;-80
2023/06/23 00:45:23;;;;;;;10.05;6.88;;;25.30;99.90;;;;;;4864924;29;20051;-80
2023/06/23 00:47:51;;;;;;;8.43;7.50;;;25.30;99.90;;;;;;4851244;29;20048;-80
2023/06/23 00:50:21;;;;;;;10.40;7.18;;;25.20;99.90;;;;;;4866022;29;20044;-81
2023/06/23 00:52:50;;;;;;;10.15;6.75;;;25.20;99.90;;;;;;4839530;29;20062;-80
2023/06/23 00:55:22;;;;;;;8.70;6.63;;;25.20;99.90;;;;;;4838607;29;20067;-80
2023/06/23 00:57:51;;;;;;;8.32;6.63;;;25.20;99.90;;;;;;4849659;29;20052;-80
2023/06/23 01:00:19;;;;;;;9.25;7.60;;;25.20;99.90;;;;;;4833726;29;20064;-80
2023/06/23 01:02:53;;;;;;;8.45;6.55;;;25.20;99.90;;;;;;4852582;29;20048;-80
2023/06/23 01:05:24;;;;;;;10.55;6.65;;;25.20;99.90;;;;;;4863209;29;20055;-79
2023/06/23 01:08:15;;;;;;;11.82;6.82;;;25.20;99.90;;;;;;4838936;29;20089;-79
2023/06/23 01:10:57;;;;;;;11.25;7.70;;;25.20;99.90;;;;;;4862621;29;20067;-79
2023/06/23 01:13:37;;;;;;;9.98;6.45;;;25.20;99.90;;;;;;4849686;29;20060;-80
2023/06/23 01:16:13;;;;;;;16.48;8.45;;;25.20;99.90;;;;;;4849443;29;20049;-79
2023/06/23 01:18:57;;;;;;;8.70;7.20;;;25.10;99.90;;;;;;4863058;29;20052;-79
2023/06/23 01:21:38;;;;;;;8.00;6.90;;;25.10;99.90;;;;;;4866293;29;20212;-79
2023/06/23 01:24:40;;;;;;;9.00;6.93;;;25.10;99.90;;;;;;4850204;29;20067;-79
2023/06/23 01:27:29;;;;;;;10.93;6.85;;;25.00;99.90;;;;;;4854048;29;20075;-79
2023/06/23 01:30:01;;;;;;;10.43;7.15;;;25.00;99.90;;;;;;4863012;29;20190;-79
2023/06/23 01:32:40;;;;;;;10.68;6.80;;;25.00;99.90;;;;;;4884479;29;20435;-79
2023/06/23 01:35:14;;;;;;;8.60;7.03;;;25.00;99.90;;;;;;4869877;29;20055;-79
2023/06/23 01:37:44;;;;;;;8.98;7.30;;;25.00;99.90;;;;;;4871528;29;22342;-79
2023/06/23 01:40:17;;;;;;;10.43;6.93;;;24.90;99.90;;;;;;4874008;29;20484;-80
2023/06/23 01:42:58;;;;;;;9.88;6.85;;;24.90;99.90;;;;;;4860709;29;20053;-79
2023/06/23 01:45:29;;;;;;;10.65;7.40;;;24.90;99.90;;;;;;4866777;29;20764;-79
2023/06/23 01:48:01;;;;;;;12.63;7.78;;;24.90;99.90;;;;;;4862536;29;20059;-79
2023/06/23 01:50:31;;;;;;;12.30;8.38;;;24.90;99.90;;;;;;4848795;29;20056;-80
2023/06/23 01:53:00;;;;;;;9.32;7.30;;;24.70;99.90;;;;;;4854390;29;20757;-79
2023/06/23 01:55:30;;;;;;;12.27;7.15;;;24.80;99.90;;;;;;4850432;29;20055;-79
2023/06/23 01:58:00;;;;;;;8.23;7.32;;;24.80;99.90;;;;;;4855702;29;20044;-79
2023/06/23 02:00:28;;;;;;;8.57;6.43;;;24.80;99.90;;;;;;4861102;29;20453;-79
2023/06/23 02:02:56;;;;;;;10.57;7.35;;;24.80;99.90;;;;;;4869801;29;20049;-79
2023/06/23 02:05:26;;;;;;;11.27;7.90;;;24.70;99.90;;;;;;4854192;29;20048;-80
2023/06/23 02:07:55;;;;;;;8.90;6.80;;;24.70;99.90;;;;;;4878133;29;20052;-80
2023/06/23 02:10:24;;;;;;;10.15;8.02;;;24.70;99.90;;;;;;4848641;29;20050;-80
2023/06/23 02:12:54;;;;;;;10.60;8.07;;;24.70;99.90;;;;;;4857383;29;20053;-79
2023/06/23 02:15:23;;;;;;;14.55;9.32;;;24.70;99.90;;;;;;4851745;29;20773;-79
2023/06/23 02:17:53;;;;;;;9.02;7.53;;;24.70;99.90;;;;;;4852226;29;20040;-79
2023/06/23 02:20:23;;;;;;;14.20;9.13;;;24.60;99.90;;;;;;4841684;29;20056;-79
2023/06/23 02:22:52;;;;;;;13.05;7.47;;;24.50;99.90;;;;;;4866307;29;20051;-79
2023/06/23 02:25:20;;;;;;;10.43;7.63;;;24.60;99.90;;;;;;4841732;29;20498;-80
2023/06/23 02:27:48;;;;;;;13.20;8.63;;;24.60;99.90;;;;;;4833980;29;20045;-79
2023/06/23 02:30:17;;;;;;;11.40;8.05;;;24.50;99.90;;;;;;4850235;29;20080;-79
2023/06/23 02:32:47;;;;;;;11.18;8.30;;;24.50;99.90;;;;;;4867593;29;22458;-79
2023/06/23 02:35:15;;;;;;;9.05;7.20;;;24.30;99.90;;;;;;4867535;29;20053;-79
2023/06/23 02:37:48;;;;;;;10.73;7.95;;;24.40;99.90;;;;;;4857673;29;20231;-79
2023/06/23 02:40:17;;;;;;;11.88;8.45;;;24.40;99.90;;;;;;4860664;29;22370;-79
2023/06/23 02:43:14;;;;;;;11.82;9.20;;;24.40;99.90;;;;;;4875991;29;20553;-79
2023/06/23 02:45:46;;;;;;;13.52;8.90;;;24.40;99.90;;;;;;4874041;29;20062;-80
2023/06/23 02:48:17;;;;;;;13.50;8.30;;;24.30;99.90;;;;;;4872235;29;20075;-79
2023/06/23 02:50:47;;;;;;;10.38;8.05;;;24.30;99.90;;;;;;4847380;29;20052;-79
2023/06/23 02:53:20;;;;;;;12.10;7.97;;;24.30;99.90;;;;;;4867215;29;20168;-79
2023/06/23 02:55:54;;;;;;;11.90;7.60;;;24.30;99.90;;;;;;4852792;29;20712;-79
2023/06/23 02:58:23;;;;;;;11.02;7.95;;;24.30;99.90;;;;;;4863672;29;20138;-79
2023/06/23 03:00:51;;;;;;;12.25;8.70;;;24.30;99.90;;;;;;4858936;29;20130;-79
2023/06/23 03:03:18;;;;;;;9.95;8.05;;;24.30;99.90;;;;;;4864896;29;20054;-79
2023/06/23 03:05:47;;;;;;;10.70;7.60;;;24.20;99.90;;;;;;4854078;29;20040;-79
2023/06/23 03:08:15;;;;;;;10.43;8.65;;;24.20;99.90;;;;;;4884442;29;20044;-79
2023/06/23 03:10:42;;;;;;;11.43;8.23;;;24.20;99.90;;;;;;4867683;29;20284;-79
2023/06/23 03:13:10;;;;;;;13.80;9.10;;;24.20;99.90;;;;;;4865703;29;22771;-79
2023/06/23 03:15:37;;;;;;;13.85;8.98;;;24.20;99.90;;;;;;4850654;29;20056;-79
2023/06/23 03:18:11;;;;;;;12.43;9.18;;;24.10;99.90;;;;;;4885057;29;20123;-79
2023/06/23 03:20:46;;;;;;;11.68;8.75;;;24.10;99.90;;;;;;4869557;29;20063;-79
2023/06/23 03:23:14;;;;;;;10.30;7.75;;;24.20;99.90;;;;;;4870053;29;20048;-79
2023/06/23 03:25:46;;;;;;;12.63;9.10;;;24.20;99.90;;;;;;4860217;29;20091;-79
2023/06/23 03:28:27;;;;;;;12.50;8.57;;;24.20;99.90;;;;;;4860058;29;20056;-79
2023/06/23 03:31:06;;;;;;;14.20;9.63;;;24.10;99.90;;;;;;4866039;29;20037;-79
2023/06/23 03:33:38;;;;;;;13.05;9.10;;;24.20;99.90;;;;;;4859312;29;20408;-78
2023/06/23 03:36:11;;;;;;;12.30;9.03;;;24.20;99.90;;;;;;4866445;29;20060;-78
2023/06/23 03:38:49;;;;;;;13.98;9.25;;;24.00;99.90;;;;;;4867356;29;20055;-78
2023/06/23 03:41:16;;;;;;;13.50;9.10;;;24.00;99.90;;;;;;4843889;29;20090;-78
2023/06/23 03:43:52;;;;;;;15.73;9.32;;;24.00;99.90;;;;;;4865080;29;20674;-78
2023/06/23 03:46:27;;;;;;;11.18;8.82;;;24.00;99.90;;;;;;4868267;29;20127;-78
2023/06/23 03:48:58;;;;;;;11.30;7.70;;;24.00;99.90;;;;;;4860245;29;20048;-79
2023/06/23 03:51:27;;;;;;;13.52;8.52;;;24.10;99.90;;;;;;4852870;29;20493;-78
2023/06/23 03:53:57;;;;;;;11.38;8.25;;;24.10;99.90;;;;;;4849416;29;20044;-78
2023/06/23 03:56:26;;;;;;;11.18;8.07;;;24.10;99.90;;;;;;4872007;29;20048;-78
2023/06/23 03:58:55;;;;;;;10.30;8.43;;;24.10;99.90;;;;;;4854327;29;20067;-78
2023/06/23 04:01:23;;;;;;;11.07;8.20;;;24.20;99.90;;;;;;4866271;29;20055;-78
2023/06/23 04:03:52;;;;;;;10.30;7.95;;;24.20;99.90;;;;;;4857197;29;20048;-78
2023/06/23 04:06:21;;;;;;;13.15;9.00;;;24.30;99.90;;;;;;4840804;29;20528;-78
2023/06/23 04:08:53;;;;;;;12.75;8.43;;;24.30;99.90;;;;;;4854890;29;20047;-78
2023/06/23 04:11:22;;;;;;;10.25;8.18;;;24.30;99.90;;;;;;4831901;29;20139;-78
2023/06/23 04:13:50;;;;;;;13.35;8.98;;;24.40;99.90;;;;;;4877372;29;20276;-78
2023/06/23 04:16:18;;;;;;;11.65;8.52;;;24.40;99.90;;;;;;4864633;29;20060;-78
2023/06/23 04:18:47;;;;;;;12.63;8.15;;;24.30;99.90;;;;;;4863837;29;20065;-78
2023/06/23 04:21:16;;;;;;;14.15;8.35;;;24.40;99.90;;;;;;4861408;29;20092;-78
2023/06/23 04:23:44;;;;;;;12.43;8.32;;;24.40;99.90;;;;;;4851227;29;20171;-77
2023/06/23 04:26:13;;;;;;;11.55;7.65;;;24.40;99.90;;;;;;4866156;29;20048;-78
2023/06/23 04:28:43;;;;;;;11.52;7.88;;;24.40;99.90;;;;;;4853699;29;20044;-78
2023/06/23 04:31:13;;;;;;;9.80;7.93;;;24.50;99.90;;;;;;4848511;29;20819;-78
2023/06/23 04:33:40;;;;;;;13.38;8.38;;;24.50;99.90;;;;;;4857586;29;20110;-78
2023/06/23 04:36:16;;;;;;;9.63;7.57;;;24.50;99.90;;;;;;4874394;29;20048;-78
2023/06/23 04:38:49;;;;;;;10.80;8.02;;;24.60;99.90;;;;;;4864970;29;20056;-77
2023/06/23 04:41:21;;;;;;;14.20;7.35;;;24.60;99.90;;;;;;4863675;29;20891;-78
2023/06/23 04:43:53;;;;;;;10.93;7.60;;;24.70;99.90;;;;;;4835684;29;20127;-78
2023/06/23 04:46:25;;;;;;;10.27;8.05;;;24.70;99.90;;;;;;4866251;29;20686;-78
2023/06/23 04:48:56;;;;;;;11.15;7.63;;;24.70;99.90;;;;;;4848417;29;20040;-78
2023/06/23 04:51:29;;;;;;;8.73;6.78;;;24.70;99.90;;;;;;4832300;29;20045;-78
2023/06/23 04:54:00;;;;;;;10.45;7.57;;;24.80;99.90;;;;;;4848148;29;20523;-77
2023/06/23 04:56:32;;;;;;;13.75;8.85;;;24.80;99.90;;;;;;4861965;29;20111;-78
2023/06/23 04:59:02;;;;;;;;;;;24.80;99.90;;;;;;4863008;29;20056;-79
2023/06/23 05:01:31;;;;;;;10.80;7.63;;;25.00;99.90;;;;;;4861921;29;20043;-79
2023/06/23 05:04:01;;;;;;;11.07;6.75;;;25.00;99.90;;;;;;4856402;29;20068;-79
2023/06/23 05:06:30;;;;;;;11.20;7.50;;;25.20;99.90;;;;;;4859947;29;20131;-79
2023/06/23 05:08:59;;;;;;;10.48;6.82;;;25.20;99.90;;;;;;4868864;29;21478;-79
2023/06/23 05:11:27;;;;;;;12.50;7.57;;;25.30;99.90;;;;;;4846700;29;20073;-79
2023/06/23 05:13:55;;;;;;;11.40;7.40;;;25.40;99.90;;;;;;4860582;29;20124;-79
2023/06/23 05:16:23;;;;;;;11.00;7.28;;;25.40;99.90;;;;;;4843473;29;20062;-79
2023/06/23 05:18:51;;;;;;;9.68;6.88;;;25.50;99.90;;;;;;4847573;29;20139;-79
2023/06/23 05:21:21;;;;;;;12.32;7.47;;;25.50;99.90;;;;;;4868072;29;20060;-80
2023/06/23 05:23:51;;;;;;;8.60;7.15;;;25.60;99.90;;;;;;4854657;29;20053;-79
2023/06/23 05:26:22;;;;;;;9.97;6.03;;;25.70;99.90;;;;;;4884822;29;20048;-81
2023/06/23 05:28:52;;;;;;;10.32;6.53;;;25.90;99.90;;;;;;4873883;29;20059;-80
2023/06/23 05:31:21;;;;;;;8.45;7.03;;;25.90;99.80;;;;;;4881029;29;20056;-80
2023/06/23 05:33:51;;;;;;;12.00;7.72;;;26.00;99.60;;;;;;4902381;29;20045;-79
2023/06/23 05:36:21;;;;;;;11.85;7.97;;;26.00;99.70;;;;;;4896853;29;20060;-80
2023/06/23 05:38:52;;;;;;;10.52;7.03;;;26.00;99.30;;;;;;4897876;29;20127;-81
2023/06/23 05:41:19;;;;;;;12.52;6.80;;;26.10;99.10;;;;;;4849949;29;20732;-82
2023/06/23 05:43:46;;;;;;;9.43;7.03;;;26.10;99.10;;;;;;4863324;29;20072;-82
2023/06/23 05:46:16;;;;;;;9.48;7.28;;;26.20;98.80;;;;;;4838000;29;20185;-81
2023/06/23 05:48:49;;;;;;;8.30;6.38;;;26.30;98.50;;;;;;4853281;29;20056;-80
2023/06/23 05:51:20;;;;;;;9.27;7.63;;;26.40;98.70;;;;;;4853457;29;20409;-80
2023/06/23 05:53:53;;;;;;;10.68;7.55;;;26.40;98.70;;;;;;4851241;29;20390;-80
2023/06/23 05:56:39;;;;;;;10.63;7.65;;;26.60;98.30;;;;;;4860104;29;20104;-81
2023/06/23 05:59:10;;;;;;;7.20;5.97;;;26.70;97.90;;;;;;4858553;29;20828;-81
2023/06/23 06:01:43;;;;;;;10.13;7.03;;;26.70;97.40;;;;;;4851663;29;20044;-82
2023/06/23 06:04:16;;;;;;;10.50;7.35;;;26.80;97.50;;;;;;4874677;29;20053;-80
2023/06/23 06:06:45;;;;;;;12.52;7.97;;;26.90;97.30;;;;;;4862434;29;20103;-80
2023/06/23 06:09:15;;;;;;;9.35;7.35;;;27.00;97.00;;;;;;4858032;29;20568;-80
2023/06/23 06:11:44;;;;;;;7.82;6.45;;;27.00;98.20;;;;;;4878610;29;20085;-82
2023/06/23 06:14:15;;;;;;;10.18;7.15;;;27.10;97.60;;;;;;4855996;29;20072;-80
2023/06/23 06:16:43;;;;;;;11.45;7.22;;;27.20;97.40;;;;;;4875534;29;20048;-80
2023/06/23 06:19:11;;;;;;;6.78;5.63;;;27.30;98.30;;;;;;4858371;29;20151;-80
2023/06/23 06:21:41;;;;;;;10.80;6.68;;;27.40;97.20;;;;;;4856813;29;20173;-81
2023/06/23 06:24:10;;;;;;;12.63;6.65;;;27.50;96.60;;;;;;4843627;29;20056;-82
2023/06/23 06:26:37;;;;;;;9.38;7.53;;;27.50;96.00;;;;;;4868734;29;20535;-81
2023/06/23 06:29:06;;;;;;;10.20;6.80;;;27.60;95.90;;;;;;4846068;29;20540;-80
2023/06/23 06:31:36;;;;;;;9.52;7.20;;;27.70;96.90;;;;;;4868604;29;20195;-82
2023/06/23 06:34:06;;;;;;;8.60;6.88;;;27.70;96.50;;;;;;4855582;29;20175;-81
2023/06/23 06:36:36;;;;;;;8.73;6.68;;;27.80;94.90;;;;;;4856948;29;20144;-82
2023/06/23 06:39:05;;;;;;;10.70;7.22;;;27.80;94.90;;;;;;4859207;29;20048;-81
2023/06/23 06:41:34;;;;;;;8.40;6.78;;;27.90;95.10;;;;;;4855254;29;20096;-81
2023/06/23 06:44:03;;;;;;;11.90;7.68;;;28.00;96.00;;;;;;4853919;29;20151;-81
2023/06/23 06:46:30;;;;;;;8.85;6.80;;;28.20;95.00;;;;;;4858371;29;20139;-82
2023/06/23 06:48:58;;;;;;;10.25;6.65;;;28.20;94.00;;;;;;4854127;29;20143;-81
2023/06/23 06:51:27;;;;;;;8.95;7.18;;;28.30;93.90;;;;;;4854727;29;20052;-82
2023/06/23 06:53:54;;;;;;;8.13;5.63;;;28.40;94.00;;;;;;4851616;29;20048;-82
2023/06/23 06:56:23;;;;;;;10.80;7.25;;;28.50;93.10;;;;;;4871969;29;20439;-81
2023/06/23 06:58:51;;;;;;;9.32;7.10;;;28.60;93.50;;;;;;4863468;29;20769;-82
2023/06/23 07:01:19;;;;;;;9.90;6.82;;;28.70;93.30;;;;;;4842464;29;20248;-82
2023/06/23 07:03:47;;;;;;;9.38;7.18;;;28.70;94.10;;;;;;4850623;29;20067;-80
2023/06/23 07:06:14;;;;;;;10.20;6.60;;;28.80;93.80;;;;;;4851341;29;20840;-81
2023/06/23 07:08:42;;;;;;;8.73;7.03;;;28.90;93.20;;;;;;4852575;29;20164;-81
2023/06/23 07:11:10;;;;;;;10.75;6.55;;;29.00;93.50;;;;;;4859654;29;20049;-82
2023/06/23 07:13:37;;;;;;;10.60;7.43;;;29.10;93.30;;;;;;4849678;29;20150;-81
2023/06/23 07:16:05;;;;;;;8.30;6.60;;;29.10;92.30;;;;;;4847812;29;20039;-81
2023/06/23 07:18:32;;;;;;;7.97;6.22;;;29.20;92.10;;;;;;4842453;29;22329;-82
2023/06/23 07:21:00;;;;;;;13.68;7.78;;;29.30;91.80;;;;;;4849320;29;20053;-82
2023/06/23 07:23:27;;;;;;;10.55;7.68;;;29.30;91.90;;;;;;4851704;29;20108;-81
2023/06/23 07:25:55;;;;;;;9.52;7.10;;;29.30;92.00;;;;;;4853053;29;20206;-80
2023/06/23 07:28:22;;;;;;;10.07;6.75;;;29.40;92.40;;;;;;4847090;29;20053;-80
2023/06/23 07:30:49;;;;;;;9.02;7.18;;;29.40;92.40;;;;;;4835767;29;20049;-81
2023/06/23 07:33:16;;;;;;;8.00;6.22;;;29.50;94.10;;;;;;4869019;29;20051;-80
2023/06/23 07:35:43;;;;;;;8.85;7.72;;;29.70;92.20;;;;;;4837183;29;20048;-81
2023/06/23 07:38:11;;;;;;;12.07;7.57;;;29.70;91.30;;;;;;4850034;29;20067;-81
2023/06/23 07:40:38;;;;;;;9.13;6.80;;;29.70;90.90;;;;;;4839320;29;20056;-82
2023/06/23 07:43:05;;;;;;;8.82;7.90;;;29.80;91.00;;;;;;4843572;29;20151;-82
2023/06/23 07:45:32;;;;;;;9.57;7.63;;;29.90;90.80;;;;;;4868062;29;22646;-81
2023/06/23 07:47:59;;;;;;;11.73;8.60;;;30.00;90.70;;;;;;4857264;29;20923;-81
2023/06/23 07:50:28;;;;;;;12.48;8.95;;;30.00;91.50;;;;;;4871800;29;20040;-82
2023/06/23 07:52:55;;;;;;;11.05;7.72;;;30.00;91.30;;;;;;4851197;29;20040;-83
2023/06/23 07:55:22;;;;;;;14.40;8.63;;;30.00;90.90;;;;;;4862021;29;20140;-82
2023/06/23 07:57:49;;;;;;;9.35;8.23;;;30.00;90.20;;;;;;4860614;29;20178;-83
2023/06/23 08:00:17;;;;;;;10.55;7.55;;;30.10;90.90;;;;;;4865666;29;20059;-79
2023/06/23 08:02:44;;;;;;;11.95;8.25;;;30.20;90.80;;;;;;4870304;29;20067;-84
2023/06/23 08:05:11;;;;;;;14.50;9.00;;;30.20;90.40;;;;;;4854498;29;20052;-82
2023/06/23 08:07:40;;;;;;;10.25;8.27;;;30.30;91.90;;;;;;4857810;29;20099;-83
2023/06/23 08:10:07;;;;;;;13.70;8.30;;;30.30;90.70;;;;;;4855372;29;20056;-83
2023/06/23 08:12:35;;;;;;;11.63;8.57;;;30.30;90.20;;;;;;4851464;29;20071;-82
2023/06/23 08:15:04;;;;;;;12.32;8.38;;;30.30;90.50;;;;;;4845565;29;20055;-81
2023/06/23 08:17:31;;;;;;;13.23;9.25;;;30.30;90.10;;;;;;4858793;29;20044;-82
2023/06/23 08:19:59;;;;;;;13.60;7.95;;;30.30;91.40;;;;;;4846738;29;20196;-81
2023/06/23 08:22:26;;;;;;;9.15;7.57;;;30.50;91.40;;;;;;4863116;29;22480;-79
2023/06/23 08:24:53;;;;;;;14.43;8.88;;;30.60;91.00;;;;;;4869809;29;20056;-78
2023/06/23 08:27:21;;;;;;;12.55;8.57;;;30.70;91.20;;;;;;4862849;29;20063;-79
2023/06/23 08:29:49;;;;;;;10.35;8.60;;;30.70;90.60;;;;;;4859277;29;20179;-80
2023/06/23 08:32:16;;;;;;;12.20;9.45;;;30.70;90.60;;;;;;4844167;29;20056;-79
2023/06/23 08:34:43;;;;;;;10.73;9.45;;;30.70;89.80;;;;;;4866273;29;20824;-78
2023/06/23 08:37:10;;;;;;;13.60;9.40;;;30.80;89.20;;;;;;4851482;29;20052;-79
2023/06/23 08:39:37;;;;;;;15.95;10.05;;;30.80;90.60;;;;;;4860615;29;20086;-78
2023/06/23 08:42:05;;;;;;;14.93;9.35;;;30.80;90.10;;;;;;4853875;29;20488;-78
2023/06/23 08:44:35;;;;;;;11.23;9.07;;;30.80;90.20;;;;;;4870900;29;20044;-78
2023/06/23 08:47:06;;;;;;;13.07;9.68;;;30.90;90.30;;;;;;4872559;29;20641;-78
2023/06/23 08:49:37;;;;;;;10.50;8.50;;;30.90;90.30;;;;;;4851679;29;20045;-77
2023/06/23 08:52:05;;;;;;;12.48;9.52;;;31.00;89.50;;;;;;4851774;29;20412;-78
2023/06/23 08:54:34;;;;;;;13.50;10.00;;;30.90;88.70;;;;;;4854503;29;20041;-80
2023/06/23 08:57:01;;;;;;;11.70;10.38;;;30.90;90.10;;;;;;4848187;29;20043;-79
2023/06/23 08:59:28;;;;;;;11.48;9.25;;;30.90;89.90;;;;;;4849002;29;20467;-80
2023/06/23 09:01:56;;;;;;;13.52;10.20;;;31.00;89.50;;;;;;4846134;29;20147;-79
2023/06/23 09:04:23;;;;;;;13.75;10.13;;;31.00;90.70;;;;;;4837881;29;20543;-77
2023/06/23 09:06:50;;;;;;;11.95;9.50;;;31.00;88.40;;;;;;4848359;29;20059;-78
2023/06/23 09:09:20;;;;;;;13.32;9.57;;;31.00;89.60;;;;;;4853087;29;20095;-78
2023/06/23 09:11:48;;;;;;;11.90;9.70;;;31.00;87.20;;;;;;4841421;29;20700;-78
2023/06/23 09:14:15;;;;;;;14.23;10.95;;;31.00;89.10;;;;;;4876100;29;20075;-79
2023/06/23 09:16:44;;;;;;;13.77;9.50;;;31.10;90.30;;;;;;4856282;29;20743;-79
2023/06/23 09:19:12;;;;;;;12.63;9.45;;;31.10;88.00;;;;;;4843987;29;22457;-79
2023/06/23 09:21:42;;;;;;;14.13;9.65;;;31.10;89.40;;;;;;4858761;29;20139;-77
2023/06/23 09:24:09;;;;;;;14.07;10.77;;;31.00;86.10;;;;;;4848085;29;20060;-77
2023/06/23 09:26:46;;;;;;;13.85;10.68;;;31.10;88.30;;;;;;4861554;29;20444;-77
2023/06/23 09:29:19;;;;;;;18.35;10.25;;;31.20;87.70;;;;;;4855618;29;20500;-77
2023/06/23 09:31:51;;;;;;;18.30;10.65;;;31.10;84.90;;;;;;4845639;29;20048;-78
2023/06/23 09:34:34;;;;;;;13.95;10.63;;;31.20;88.50;;;;;;4837548;29;20521;-78
2023/06/23 09:37:08;;;;;;;14.50;9.93;;;31.20;88.50;;;;;;4855009;29;20044;-78
2023/06/23 09:39:37;;;;;;;12.63;10.18;;;31.10;85.00;;;;;;4853495;29;20052;-78
2023/06/23 09:42:06;;;;;;;17.02;11.18;;;31.00;83.50;;;;;;4863232;29;20061;-77
2023/06/23 09:44:38;;;;;;;13.50;10.10;;;31.10;88.20;;;;;;4839250;29;20040;-77
2023/06/23 09:47:06;;;;;;;14.55;9.85;;;31.20;86.40;;;;;;4866065;29;20488;-78
2023/06/23 09:49:41;;;;;;;15.50;11.18;;;31.30;86.50;;;;;;4852534;29;20167;-78
2023/06/23 09:52:12;;;;;;;14.45;9.52;;;31.30;84.50;;;;;;4875709;29;20108;-81
2023/06/23 09:54:40;;;;;;;11.83;8.63;;;31.40;85.80;;;;;;4845339;29;20052;-78
2023/06/23 09:57:15;;;;;;;15.18;10.95;;;31.40;84.20;;;;;;4851341;29;22369;-78
2023/06/23 09:59:44;;;;;;;13.05;9.35;;;31.30;85.40;;;;;;4861593;29;20128;-79
2023/06/23 10:02:27;;;;;;;12.95;10.32;;;31.30;87.30;;;;;;4838726;29;20063;-77
2023/06/23 10:05:01;;;;;;;13.30;10.15;;;31.50;88.30;;;;;;4872132;29;20056;-78
2023/06/23 10:07:29;;;;;;;13.77;10.38;;;31.20;86.00;;;;;;4848409;29;20041;-76
2023/06/23 10:10:01;;;;;;;15.10;10.88;;;31.30;87.00;;;;;;4839929;29;20083;-77
2023/06/23 10:12:48;;;;;;;14.23;9.55;;;31.30;87.20;;;;;;4868149;29;20247;-78
2023/06/23 10:15:15;;;;;;;13.68;9.43;;;31.50;87.00;;;;;;4866352;29;20204;-76
2023/06/23 10:17:43;;;;;;;15.35;9.55;;;31.50;87.00;;;;;;4866399;29;20059;-77
2023/06/23 10:20:11;;;;;;;14.63;9.95;;;31.50;88.50;;;;;;4854358;29;20059;-80
2023/06/23 10:22:40;;;;;;;14.32;9.55;;;31.60;87.20;;;;;;4853693;29;20063;-80
2023/06/23 10:25:10;;;;;;;15.13;9.55;;;31.70;87.60;;;;;;4864039;29;20522;-77
2023/06/23 10:27:40;;;;;;;16.00;10.35;;;31.80;86.90;;;;;;4854141;29;20468;-80
2023/06/23 10:30:11;;;;;;;18.45;9.63;;;31.80;86.20;;;;;;4861973;29;20532;-79
2023/06/23 10:32:44;;;;;;;14.00;9.43;;;31.80;84.50;;;;;;4877374;29;22326;-81
2023/06/23 10:35:12;;;;;;;17.30;9.60;;;31.90;85.00;;;;;;4845831;29;20053;-76
2023/06/23 10:37:43;;;;;;;12.75;9.27;;;31.90;83.20;;;;;;4855312;29;20054;-80
2023/06/23 10:40:16;;;;;;;12.43;9.07;;;31.90;84.20;;;;;;4860023;29;20711;-78
2023/06/23 10:42:47;;;;;;;16.13;10.63;;;31.80;83.60;;;;;;4863067;29;20492;-78
2023/06/23 10:45:15;;;;;;;10.98;8.90;;;31.70;82.00;;;;;;4849668;29;20555;-79
2023/06/23 10:47:43;;;;;;;14.57;10.15;;;31.80;84.20;;;;;;4845756;29;20045;-79
2023/06/23 10:50:12;;;;;;;17.77;9.50;;;32.00;85.00;;;;;;4844081;29;20060;-78
2023/06/23 10:52:39;;;;;;;15.25;9.55;;;31.90;85.20;;;;;;4859715;29;20555;-78
2023/06/23 10:55:35;;;;;;;19.45;10.27;;;31.80;84.70;;;;;;4869568;29;20044;-78
2023/06/23 10:58:10;;;;;;;14.10;9.00;;;31.70;86.40;;;;;;4834712;29;20056;-79
2023/06/23 11:00:38;;;;;;;17.45;10.55;;;31.90;84.00;;;;;;4876534;29;20408;-80
2023/06/23 11:03:11;;;;;;;13.93;9.90;;;31.90;83.80;;;;;;4857901;29;20401;-77
2023/06/23 11:05:42;;;;;;;17.40;9.68;;;32.00;83.30;;;;;;4853663;29;20393;-77
2023/06/23 11:08:12;;;;;;;15.07;9.65;;;32.00;82.10;;;;;;4869074;29;20056;-79
2023/06/23 11:10:48;;;;;;;13.27;9.75;;;32.00;83.20;;;;;;4859394;29;20040;-76
2023/06/23 11:13:15;;;;;;;13.32;10.32;;;32.00;81.50;;;;;;4855543;29;20160;-77
2023/06/23 11:16:03;;;;;;;15.25;10.15;;;32.00;84.30;;;;;;4849411;29;20701;-77
2023/06/23 11:18:30;;;;;;;13.82;9.35;;;32.00;82.10;;;;;;4840174;29;20516;-77
2023/06/23 11:21:13;;;;;;;14.52;11.23;;;32.00;82.50;;;;;;4855522;29;20052;-78
2023/06/23 11:24:12;;;;;;;16.25;10.57;;;32.10;83.90;;;;;;4851267;29;20059;-79
2023/06/23 11:26:52;;;;;;;16.55;9.98;;;32.00;83.60;;;;;;4847142;29;20056;-77
2023/06/23 11:29:23;;;;;;;12.18;10.23;;;31.80;81.90;;;;;;4863494;29;20063;-82
2023/06/23 11:32:13;;;;;;;14.98;10.65;;;31.60;83.40;;;;;;4869661;29;20855;-80
2023/06/23 11:34:52;;;;;;;16.27;10.48;;;31.60;82.80;;;;;;4856752;29;20056;-79
2023/06/23 11:37:21;;;;;;;13.93;9.88;;;31.80;81.40;;;;;;4860981;29;20056;-79
2023/06/23 11:39:51;;;;;;;13.13;10.73;;;31.70;82.80;;;;;;4868037;29;20062;-79
2023/06/23 11:42:18;;;;;;;16.40;10.77;;;31.50;83.00;;;;;;4869390;29;20196;-78
2023/06/23 11:44:46;;;;;;;15.10;10.60;;;31.50;81.80;;;;;;4840597;29;20091;-78
2023/06/23 11:47:13;;;;;;;14.32;10.48;;;31.30;83.50;;;;;;4877156;29;20568;-77
2023/06/23 11:49:40;;;;;;;14.40;10.30;;;31.40;83.20;;;;;;4850413;29;21179;-77
2023/06/23 11:52:08;;;;;;;22.38;12.35;;;31.70;83.90;;;;;;4843549;29;20056;-80
2023/06/23 11:54:36;;;;;;;15.43;11.18;;;32.00;81.00;;;;;;4874281;29;20049;-77
2023/06/23 11:57:04;;;;;;;16.95;11.77;;;32.10;83.70;;;;;;4829416;29;20139;-78
2023/06/23 11:59:38;;;;;;;16.73;10.73;;;32.00;82.80;;;;;;4851441;29;20060;-78
2023/06/23 12:02:06;;;;;;;20.67;10.95;;;32.00;83.30;;;;;;4852556;29;20056;-77
2023/06/23 12:04:36;;;;;;;16.27;10.00;;;32.10;82.90;;;;;;4855809;29;20052;-80
2023/06/23 12:07:04;;;;;;;12.77;10.43;;;32.20;80.60;;;;;;4863211;29;20515;-78
2023/06/23 12:09:32;;;;;;;13.48;10.48;;;32.00;79.40;;;;;;4845642;29;20052;-77
2023/06/23 12:11:59;;;;;;;13.40;9.43;;;31.90;82.20;;;;;;4883311;29;20060;-77
2023/06/23 12:14:31;;;;;;;14.68;9.68;;;31.80;79.70;;;;;;4854012;29;20064;-80
2023/06/23 12:17:09;;;;;;;13.57;10.00;;;32.00;80.60;;;;;;4851159;29;20045;-78
2023/06/23 12:19:38;;;;;;;23.33;10.73;;;32.00;81.00;;;;;;4850335;29;20063;-77
2023/06/23 12:22:15;;;;;;;19.40;10.52;;;32.00;78.30;;;;;;4839059;29;20052;-78
2023/06/23 12:24:42;;;;;;;14.45;9.55;;;31.90;80.00;;;;;;4848761;29;20954;-78
2023/06/23 12:27:10;;;;;;;21.50;10.15;;;31.80;81.00;;;;;;4851902;29;20135;-77
2023/06/23 12:29:38;;;;;;;13.05;10.07;;;31.70;80.70;;;;;;4849941;29;20055;-78
2023/06/23 12:32:05;;;;;;;15.70;11.50;;;31.50;84.00;;;;;;4866444;29;20056;-77
2023/06/23 12:34:37;;;;;;;13.68;10.30;;;31.70;82.00;;;;;;4834952;29;20056;-77
2023/06/23 12:37:08;;;;;;;15.80;10.88;;;31.70;83.40;;;;;;4850053;29;20048;-77
2023/06/23 12:39:35;;;;;;;13.32;11.10;;;31.50;79.80;;;;;;4849769;29;20551;-79
2023/06/23 12:42:03;;;;;;;17.60;11.20;;;31.40;81.70;;;;;;4837078;29;20162;-78
2023/06/23 12:44:31;;;;;;;19.50;11.52;;;31.50;81.70;;;;;;4856051;29;20060;-77
2023/06/23 12:47:04;;;;;;;15.95;11.60;;;31.70;81.00;;;;;;4849446;29;20132;-77
2023/06/23 12:49:32;;;;;;;18.73;11.52;;;31.90;82.30;;;;;;4840186;29;20052;-78
2023/06/23 12:52:00;;;;;;;15.02;11.27;;;31.80;82.00;;;;;;4858443;29;20255;-78
2023/06/23 12:54:28;;;;;;;14.02;11.35;;;31.60;83.20;;;;;;4852712;29;20588;-77